sensor_id;sensor_type;location;lat;lon;timestamp;P1;durP1;ratioP1;P2;durP2;ratioP2
51985;SDS011;38002;53.296;6.600;2023-03-31T00:03:20;24.95;;;3.47;;
51985;SDS011;38002;53.296;6.600;2023-03-31T00:08:21;25.77;;;3.13;;
51985;SDS011;38002;53.296;6.600;2023-03-31T00:13:21;26.58;;;3.75;;
51985;SDS011;38002;53.296;6.600;2023-03-31T00:18:22;24.45;;;3.75;;
51985;SDS011;38002;53.296;6.600;2023-03-31T00:23:24;27.95;;;3.90;;
51985;SDS011;38002;53.296;6.600;2023-03-31T00:33:27;25.37;;;4.43;;
51985;SDS011;38002;53.296;6.600;2023-03-31T00:38:28;25.80;;;4.22;;
51985;SDS011;38002;53.296;6.600;2023-03-31T00:48:32;17.23;;;2.83;;
51985;SDS011;38002;53.296;6.600;2023-03-31T00:53:35;24.58;;;4.22;;
51985;SDS011;38002;53.296;6.600;2023-03-31T00:58:36;25.30;;;3.37;;
51985;SDS011;38002;53.296;6.600;2023-03-31T01:03:42;29.15;;;3.30;;
51985;SDS011;38002;53.296;6.600;2023-03-31T01:08:46;20.77;;;3.65;;
51985;SDS011;38002;53.296;6.600;2023-03-31T01:13:49;22.42;;;4.07;;
51985;SDS011;38002;53.296;6.600;2023-03-31T01:18:52;22.85;;;3.55;;
51985;SDS011;38002;53.296;6.600;2023-03-31T01:28:59;26.05;;;3.22;;
51985;SDS011;38002;53.296;6.600;2023-03-31T01:50:04;24.77;;;3.15;;
51985;SDS011;38002;53.296;6.600;2023-03-31T02:00:28;17.77;;;3.30;;
51985;SDS011;38002;53.296;6.600;2023-03-31T02:05:37;34.15;;;3.92;;
51985;SDS011;38002;53.296;6.600;2023-03-31T02:10:43;29.83;;;4.68;;
51985;SDS011;38002;53.296;6.600;2023-03-31T02:20:50;14.88;;;2.50;;
51985;SDS011;38002;53.296;6.600;2023-03-31T02:25:55;14.02;;;3.05;;
51985;SDS011;38002;53.296;6.600;2023-03-31T02:36:25;20.45;;;3.42;;
51985;SDS011;38002;53.296;6.600;2023-03-31T02:41:26;24.05;;;3.97;;
51985;SDS011;38002;53.296;6.600;2023-03-31T02:46:27;25.35;;;4.43;;
51985;SDS011;38002;53.296;6.600;2023-03-31T03:08:30;24.85;;;3.08;;
51985;SDS011;38002;53.296;6.600;2023-03-31T03:19:20;27.67;;;4.10;;
51985;SDS011;38002;53.296;6.600;2023-03-31T03:24:22;14.68;;;2.75;;
51985;SDS011;38002;53.296;6.600;2023-03-31T03:29:28;23.20;;;2.80;;
51985;SDS011;38002;53.296;6.600;2023-03-31T03:34:28;11.40;;;2.92;;
51985;SDS011;38002;53.296;6.600;2023-03-31T03:39:29;19.15;;;3.72;;
51985;SDS011;38002;53.296;6.600;2023-03-31T03:44:29;26.67;;;3.50;;
51985;SDS011;38002;53.296;6.600;2023-03-31T03:49:30;13.13;;;2.53;;
51985;SDS011;38002;53.296;6.600;2023-03-31T03:54:30;19.55;;;2.42;;
51985;SDS011;38002;53.296;6.600;2023-03-31T03:59:31;16.30;;;2.38;;
51985;SDS011;38002;53.296;6.600;2023-03-31T04:04:32;19.48;;;3.78;;
51985;SDS011;38002;53.296;6.600;2023-03-31T04:09:32;11.80;;;2.92;;
51985;SDS011;38002;53.296;6.600;2023-03-31T04:14:33;11.65;;;3.28;;
51985;SDS011;38002;53.296;6.600;2023-03-31T04:19:33;12.07;;;2.53;;
51985;SDS011;38002;53.296;6.600;2023-03-31T04:24:33;12.43;;;3.42;;
51985;SDS011;38002;53.296;6.600;2023-03-31T04:29:37;22.92;;;5.20;;
51985;SDS011;38002;53.296;6.600;2023-03-31T04:34:38;11.02;;;3.35;;
51985;SDS011;38002;53.296;6.600;2023-03-31T04:39:38;10.98;;;3.00;;
51985;SDS011;38002;53.296;6.600;2023-03-31T04:44:39;10.98;;;3.95;;
51985;SDS011;38002;53.296;6.600;2023-03-31T04:49:39;8.43;;;3.80;;
51985;SDS011;38002;53.296;6.600;2023-03-31T04:54:39;13.63;;;3.53;;
51985;SDS011;38002;53.296;6.600;2023-03-31T04:59:40;11.77;;;4.53;;
51985;SDS011;38002;53.296;6.600;2023-03-31T05:04:40;11.95;;;4.38;;
51985;SDS011;38002;53.296;6.600;2023-03-31T05:09:41;10.57;;;4.95;;
51985;SDS011;38002;53.296;6.600;2023-03-31T05:14:41;11.57;;;5.18;;
51985;SDS011;38002;53.296;6.600;2023-03-31T05:19:42;9.60;;;5.18;;
51985;SDS011;38002;53.296;6.600;2023-03-31T05:24:43;10.80;;;4.80;;
51985;SDS011;38002;53.296;6.600;2023-03-31T05:29:43;17.70;;;5.63;;
51985;SDS011;38002;53.296;6.600;2023-03-31T05:34:44;17.80;;;5.75;;
51985;SDS011;38002;53.296;6.600;2023-03-31T05:39:45;14.40;;;6.30;;
51985;SDS011;38002;53.296;6.600;2023-03-31T05:44:45;11.93;;;6.30;;
51985;SDS011;38002;53.296;6.600;2023-03-31T05:49:46;11.80;;;5.40;;
51985;SDS011;38002;53.296;6.600;2023-03-31T05:54:46;14.98;;;5.75;;
51985;SDS011;38002;53.296;6.600;2023-03-31T05:59:47;16.80;;;5.38;;
51985;SDS011;38002;53.296;6.600;2023-03-31T06:04:47;14.18;;;5.88;;
51985;SDS011;38002;53.296;6.600;2023-03-31T06:09:49;9.50;;;4.97;;
51985;SDS011;38002;53.296;6.600;2023-03-31T06:14:49;14.20;;;5.00;;
51985;SDS011;38002;53.296;6.600;2023-03-31T06:19:50;9.43;;;3.85;;
51985;SDS011;38002;53.296;6.600;2023-03-31T06:24:50;17.65;;;4.57;;
51985;SDS011;38002;53.296;6.600;2023-03-31T06:29:51;8.23;;;3.35;;
51985;SDS011;38002;53.296;6.600;2023-03-31T06:34:51;8.23;;;3.03;;
51985;SDS011;38002;53.296;6.600;2023-03-31T06:39:51;12.13;;;3.85;;
51985;SDS011;38002;53.296;6.600;2023-03-31T06:44:52;8.55;;;3.50;;
51985;SDS011;38002;53.296;6.600;2023-03-31T06:49:54;4.72;;;3.33;;
51985;SDS011;38002;53.296;6.600;2023-03-31T06:54:55;8.30;;;2.58;;
51985;SDS011;38002;53.296;6.600;2023-03-31T06:59:55;7.00;;;3.03;;
51985;SDS011;38002;53.296;6.600;2023-03-31T07:04:56;7.97;;;2.40;;
51985;SDS011;38002;53.296;6.600;2023-03-31T07:09:56;8.27;;;2.60;;
51985;SDS011;38002;53.296;6.600;2023-03-31T07:14:57;7.43;;;2.63;;
51985;SDS011;38002;53.296;6.600;2023-03-31T07:19:58;4.57;;;2.78;;
51985;SDS011;38002;53.296;6.600;2023-03-31T07:24:59;5.18;;;2.60;;
51985;SDS011;38002;53.296;6.600;2023-03-31T07:29:59;8.05;;;3.03;;
51985;SDS011;38002;53.296;6.600;2023-03-31T07:35:00;6.78;;;3.88;;
51985;SDS011;38002;53.296;6.600;2023-03-31T07:40:00;6.78;;;2.65;;
51985;SDS011;38002;53.296;6.600;2023-03-31T07:45:01;8.88;;;3.13;;
51985;SDS011;38002;53.296;6.600;2023-03-31T07:50:05;9.68;;;3.03;;
51985;SDS011;38002;53.296;6.600;2023-03-31T07:55:06;9.07;;;2.67;;
51985;SDS011;38002;53.296;6.600;2023-03-31T08:00:08;6.40;;;2.97;;
51985;SDS011;38002;53.296;6.600;2023-03-31T08:05:11;5.35;;;2.30;;
51985;SDS011;38002;53.296;6.600;2023-03-31T08:10:15;8.18;;;2.60;;
51985;SDS011;38002;53.296;6.600;2023-03-31T08:15:17;8.48;;;2.63;;
51985;SDS011;38002;53.296;6.600;2023-03-31T08:20:18;11.68;;;3.65;;
51985;SDS011;38002;53.296;6.600;2023-03-31T08:25:18;5.75;;;3.53;;
51985;SDS011;38002;53.296;6.600;2023-03-31T08:30:20;3.65;;;2.72;;
51985;SDS011;38002;53.296;6.600;2023-03-31T08:35:20;2.90;;;2.22;;
51985;SDS011;38002;53.296;6.600;2023-03-31T08:40:23;6.05;;;2.58;;
51985;SDS011;38002;53.296;6.600;2023-03-31T08:45:28;7.45;;;2.20;;
51985;SDS011;38002;53.296;6.600;2023-03-31T08:50:32;3.95;;;1.95;;
51985;SDS011;38002;53.296;6.600;2023-03-31T08:55:54;4.25;;;2.30;;
51985;SDS011;38002;53.296;6.600;2023-03-31T09:06:19;4.05;;;2.13;;
51985;SDS011;38002;53.296;6.600;2023-03-31T09:11:37;4.63;;;2.20;;
51985;SDS011;38002;53.296;6.600;2023-03-31T09:21:54;6.07;;;2.45;;
51985;SDS011;38002;53.296;6.600;2023-03-31T09:26:57;12.57;;;3.63;;
51985;SDS011;38002;53.296;6.600;2023-03-31T09:32:05;6.32;;;3.10;;
51985;SDS011;38002;53.296;6.600;2023-03-31T09:37:15;3.88;;;2.47;;
51985;SDS011;38002;53.296;6.600;2023-03-31T09:42:15;9.95;;;3.08;;
51985;SDS011;38002;53.296;6.600;2023-03-31T09:47:19;8.25;;;3.03;;
51985;SDS011;38002;53.296;6.600;2023-03-31T09:52:32;5.82;;;2.92;;
51985;SDS011;38002;53.296;6.600;2023-03-31T09:57:37;4.43;;;2.95;;
51985;SDS011;38002;53.296;6.600;2023-03-31T10:02:51;9.20;;;3.38;;
51985;SDS011;38002;53.296;6.600;2023-03-31T10:13:20;5.03;;;2.63;;
51985;SDS011;38002;53.296;6.600;2023-03-31T10:18:30;10.90;;;3.58;;
51985;SDS011;38002;53.296;6.600;2023-03-31T10:23:34;7.30;;;3.00;;
51985;SDS011;38002;53.296;6.600;2023-03-31T10:28:35;5.57;;;3.03;;
51985;SDS011;38002;53.296;6.600;2023-03-31T10:33:39;7.53;;;2.60;;
51985;SDS011;38002;53.296;6.600;2023-03-31T10:38:44;7.28;;;3.03;;
51985;SDS011;38002;53.296;6.600;2023-03-31T10:43:48;3.80;;;2.28;;
51985;SDS011;38002;53.296;6.600;2023-03-31T10:48:50;3.15;;;1.63;;
51985;SDS011;38002;53.296;6.600;2023-03-31T10:53:52;2.83;;;1.70;;
51985;SDS011;38002;53.296;6.600;2023-03-31T11:04:06;2.20;;;1.30;;
51985;SDS011;38002;53.296;6.600;2023-03-31T11:10:07;9.25;;;1.98;;
51985;SDS011;38002;53.296;6.600;2023-03-31T11:14:50;5.38;;;2.80;;
51985;SDS011;38002;53.296;6.600;2023-03-31T11:30:31;5.25;;;2.30;;
51985;SDS011;38002;53.296;6.600;2023-03-31T11:35:44;5.05;;;2.50;;
51985;SDS011;38002;53.296;6.600;2023-03-31T11:57:00;4.78;;;1.73;;
51985;SDS011;38002;53.296;6.600;2023-03-31T12:02:14;6.22;;;2.20;;
51985;SDS011;38002;53.296;6.600;2023-03-31T12:07:29;8.05;;;2.47;;
51985;SDS011;38002;53.296;6.600;2023-03-31T12:12:37;5.53;;;1.88;;
51985;SDS011;38002;53.296;6.600;2023-03-31T12:17:42;2.63;;;1.80;;
51985;SDS011;38002;53.296;6.600;2023-03-31T12:22:47;7.25;;;1.88;;
51985;SDS011;38002;53.296;6.600;2023-03-31T12:27:49;8.57;;;1.70;;
51985;SDS011;38002;53.296;6.600;2023-03-31T12:32:54;4.95;;;1.73;;
51985;SDS011;38002;53.296;6.600;2023-03-31T12:59:17;4.32;;;1.67;;
51985;SDS011;38002;53.296;6.600;2023-03-31T13:04:25;7.32;;;3.28;;
51985;SDS011;38002;53.296;6.600;2023-03-31T13:14:36;6.35;;;1.85;;
51985;SDS011;38002;53.296;6.600;2023-03-31T13:24:44;2.80;;;1.85;;
51985;SDS011;38002;53.296;6.600;2023-03-31T13:29:44;5.30;;;1.90;;
51985;SDS011;38002;53.296;6.600;2023-03-31T13:34:47;3.90;;;1.80;;
51985;SDS011;38002;53.296;6.600;2023-03-31T14:01:46;3.10;;;1.88;;
51985;SDS011;38002;53.296;6.600;2023-03-31T14:17:22;3.95;;;0.98;;
51985;SDS011;38002;53.296;6.600;2023-03-31T14:38:37;3.05;;;1.10;;
51985;SDS011;38002;53.296;6.600;2023-03-31T14:43:38;2.83;;;1.30;;
51985;SDS011;38002;53.296;6.600;2023-03-31T14:48:46;1.73;;;1.10;;
51985;SDS011;38002;53.296;6.600;2023-03-31T14:53:47;3.63;;;1.10;;
51985;SDS011;38002;53.296;6.600;2023-03-31T14:58:55;2.90;;;0.88;;
51985;SDS011;38002;53.296;6.600;2023-03-31T15:03:56;2.17;;;0.68;;
51985;SDS011;38002;53.296;6.600;2023-03-31T15:08:56;5.77;;;1.07;;
51985;SDS011;38002;53.296;6.600;2023-03-31T15:13:57;3.07;;;0.77;;
51985;SDS011;38002;53.296;6.600;2023-03-31T15:24:02;3.30;;;0.70;;
51985;SDS011;38002;53.296;6.600;2023-03-31T15:29:13;4.70;;;1.10;;
51985;SDS011;38002;53.296;6.600;2023-03-31T15:34:34;4.30;;;0.88;;
51985;SDS011;38002;53.296;6.600;2023-03-31T15:39:36;1.40;;;0.68;;
51985;SDS011;38002;53.296;6.600;2023-03-31T15:44:38;2.65;;;0.68;;
51985;SDS011;38002;53.296;6.600;2023-03-31T15:50:02;1.50;;;0.68;;
51985;SDS011;38002;53.296;6.600;2023-03-31T15:55:28;2.42;;;1.00;;
51985;SDS011;38002;53.296;6.600;2023-03-31T16:10:33;6.50;;;1.05;;
51985;SDS011;38002;53.296;6.600;2023-03-31T16:15:41;3.75;;;1.02;;
51985;SDS011;38002;53.296;6.600;2023-03-31T16:20:49;1.83;;;0.90;;
51985;SDS011;38002;53.296;6.600;2023-03-31T16:25:53;2.60;;;1.05;;
51985;SDS011;38002;53.296;6.600;2023-03-31T16:30:54;6.40;;;1.25;;
51985;SDS011;38002;53.296;6.600;2023-03-31T16:35:55;3.92;;;1.10;;
51985;SDS011;38002;53.296;6.600;2023-03-31T16:40:57;3.92;;;1.35;;
51985;SDS011;38002;53.296;6.600;2023-03-31T16:46:00;4.65;;;0.95;;
51985;SDS011;38002;53.296;6.600;2023-03-31T16:51:03;2.95;;;0.95;;
51985;SDS011;38002;53.296;6.600;2023-03-31T16:56:04;1.88;;;0.93;;
51985;SDS011;38002;53.296;6.600;2023-03-31T17:01:09;1.38;;;0.82;;
51985;SDS011;38002;53.296;6.600;2023-03-31T17:06:12;6.50;;;2.47;;
51985;SDS011;38002;53.296;6.600;2023-03-31T17:11:13;6.10;;;1.90;;
51985;SDS011;38002;53.296;6.600;2023-03-31T17:16:13;13.83;;;5.33;;
51985;SDS011;38002;53.296;6.600;2023-03-31T17:21:14;13.07;;;2.23;;
51985;SDS011;38002;53.296;6.600;2023-03-31T17:26:18;6.65;;;1.90;;
51985;SDS011;38002;53.296;6.600;2023-03-31T17:31:20;10.02;;;1.55;;
51985;SDS011;38002;53.296;6.600;2023-03-31T17:36:20;8.10;;;2.40;;
51985;SDS011;38002;53.296;6.600;2023-03-31T17:41:21;4.93;;;1.90;;
51985;SDS011;38002;53.296;6.600;2023-03-31T17:46:22;2.22;;;0.90;;
51985;SDS011;38002;53.296;6.600;2023-03-31T17:51:23;3.97;;;1.23;;
51985;SDS011;38002;53.296;6.600;2023-03-31T17:56:24;5.13;;;1.40;;
51985;SDS011;38002;53.296;6.600;2023-03-31T18:01:24;8.27;;;2.28;;
51985;SDS011;38002;53.296;6.600;2023-03-31T18:06:24;4.37;;;1.83;;
51985;SDS011;38002;53.296;6.600;2023-03-31T18:11:25;6.43;;;2.30;;
51985;SDS011;38002;53.296;6.600;2023-03-31T18:16:26;7.10;;;2.03;;
51985;SDS011;38002;53.296;6.600;2023-03-31T18:21:28;3.03;;;1.33;;
51985;SDS011;38002;53.296;6.600;2023-03-31T18:26:28;4.45;;;1.88;;
51985;SDS011;38002;53.296;6.600;2023-03-31T18:31:29;6.90;;;1.83;;
51985;SDS011;38002;53.296;6.600;2023-03-31T18:36:30;4.70;;;2.00;;
51985;SDS011;38002;53.296;6.600;2023-03-31T18:41:31;8.27;;;2.40;;
51985;SDS011;38002;53.296;6.600;2023-03-31T18:46:31;4.70;;;2.43;;
51985;SDS011;38002;53.296;6.600;2023-03-31T18:51:31;7.88;;;2.55;;
51985;SDS011;38002;53.296;6.600;2023-03-31T18:56:32;5.13;;;3.35;;
51985;SDS011;38002;53.296;6.600;2023-03-31T19:01:32;3.97;;;2.15;;
51985;SDS011;38002;53.296;6.600;2023-03-31T19:06:36;3.80;;;2.97;;
51985;SDS011;38002;53.296;6.600;2023-03-31T19:11:36;2.60;;;2.22;;
51985;SDS011;38002;53.296;6.600;2023-03-31T19:16:37;1.63;;;1.52;;
51985;SDS011;38002;53.296;6.600;2023-03-31T19:21:41;2.33;;;1.80;;
51985;SDS011;38002;53.296;6.600;2023-03-31T19:26:41;10.07;;;5.80;;
51985;SDS011;38002;53.296;6.600;2023-03-31T19:31:42;29.35;;;14.30;;
51985;SDS011;38002;53.296;6.600;2023-03-31T19:36:44;6.72;;;4.35;;
51985;SDS011;38002;53.296;6.600;2023-03-31T19:41:44;3.35;;;2.10;;
51985;SDS011;38002;53.296;6.600;2023-03-31T19:46:45;4.33;;;1.77;;
51985;SDS011;38002;53.296;6.600;2023-03-31T19:51:47;1.63;;;1.52;;
51985;SDS011;38002;53.296;6.600;2023-03-31T19:56:47;2.70;;;1.60;;
51985;SDS011;38002;53.296;6.600;2023-03-31T20:01:48;4.03;;;3.50;;
51985;SDS011;38002;53.296;6.600;2023-03-31T20:06:49;4.43;;;2.47;;
51985;SDS011;38002;53.296;6.600;2023-03-31T20:11:50;3.60;;;3.27;;
51985;SDS011;38002;53.296;6.600;2023-03-31T20:16:52;3.13;;;1.85;;
51985;SDS011;38002;53.296;6.600;2023-03-31T20:21:53;3.92;;;2.25;;
51985;SDS011;38002;53.296;6.600;2023-03-31T20:26:55;6.33;;;3.00;;
51985;SDS011;38002;53.296;6.600;2023-03-31T20:31:55;8.70;;;3.33;;
51985;SDS011;38002;53.296;6.600;2023-03-31T20:36:56;8.05;;;2.67;;
51985;SDS011;38002;53.296;6.600;2023-03-31T20:41:57;5.03;;;2.38;;
51985;SDS011;38002;53.296;6.600;2023-03-31T20:46:57;6.38;;;2.47;;
51985;SDS011;38002;53.296;6.600;2023-03-31T20:51:59;5.45;;;2.38;;
51985;SDS011;38002;53.296;6.600;2023-03-31T20:57:00;5.93;;;2.40;;
51985;SDS011;38002;53.296;6.600;2023-03-31T21:02:04;3.63;;;2.28;;
51985;SDS011;38002;53.296;6.600;2023-03-31T21:07:05;3.88;;;2.20;;
51985;SDS011;38002;53.296;6.600;2023-03-31T21:12:05;3.10;;;2.03;;
51985;SDS011;38002;53.296;6.600;2023-03-31T21:17:06;4.13;;;1.60;;
51985;SDS011;38002;53.296;6.600;2023-03-31T21:22:06;5.18;;;2.13;;
51985;SDS011;38002;53.296;6.600;2023-03-31T21:27:07;5.40;;;2.00;;
51985;SDS011;38002;53.296;6.600;2023-03-31T21:32:07;2.65;;;1.85;;
51985;SDS011;38002;53.296;6.600;2023-03-31T21:37:08;2.25;;;1.67;;
51985;SDS011;38002;53.296;6.600;2023-03-31T21:42:09;8.90;;;2.55;;
51985;SDS011;38002;53.296;6.600;2023-03-31T21:47:10;3.47;;;2.42;;
51985;SDS011;38002;53.296;6.600;2023-03-31T21:52:11;4.25;;;2.95;;
51985;SDS011;38002;53.296;6.600;2023-03-31T21:57:11;5.85;;;3.05;;
51985;SDS011;38002;53.296;6.600;2023-03-31T22:02:12;4.80;;;2.95;;
51985;SDS011;38002;53.296;6.600;2023-03-31T22:07:12;4.03;;;2.45;;
51985;SDS011;38002;53.296;6.600;2023-03-31T22:12:13;4.80;;;2.67;;
51985;SDS011;38002;53.296;6.600;2023-03-31T22:17:14;4.22;;;2.78;;
51985;SDS011;38002;53.296;6.600;2023-03-31T22:22:14;2.72;;;2.50;;
51985;SDS011;38002;53.296;6.600;2023-03-31T22:27:15;3.53;;;3.23;;
51985;SDS011;38002;53.296;6.600;2023-03-31T22:32:16;7.55;;;3.50;;
51985;SDS011;38002;53.296;6.600;2023-03-31T22:37:19;4.10;;;3.70;;
51985;SDS011;38002;53.296;6.600;2023-03-31T22:42:19;5.20;;;3.88;;
51985;SDS011;38002;53.296;6.600;2023-03-31T22:47:20;3.55;;;3.25;;
51985;SDS011;38002;53.296;6.600;2023-03-31T22:52:20;5.45;;;4.35;;
51985;SDS011;38002;53.296;6.600;2023-03-31T22:57:21;5.60;;;3.58;;
51985;SDS011;38002;53.296;6.600;2023-03-31T23:02:21;4.68;;;3.75;;
51985;SDS011;38002;53.296;6.600;2023-03-31T23:07:22;5.40;;;4.47;;
51985;SDS011;38002;53.296;6.600;2023-03-31T23:12:26;7.60;;;4.75;;
51985;SDS011;38002;53.296;6.600;2023-03-31T23:17:26;5.07;;;4.47;;
51985;SDS011;38002;53.296;6.600;2023-03-31T23:22:27;6.10;;;4.15;;
51985;SDS011;38002;53.296;6.600;2023-03-31T23:27:27;4.88;;;3.58;;
51985;SDS011;38002;53.296;6.600;2023-03-31T23:32:28;3.88;;;2.90;;
51985;SDS011;38002;53.296;6.600;2023-03-31T23:37:28;3.65;;;3.35;;
51985;SDS011;38002;53.296;6.600;2023-03-31T23:42:29;3.20;;;2.95;;
51985;SDS011;38002;53.296;6.600;2023-03-31T23:47:29;7.70;;;3.60;;
51985;SDS011;38002;53.296;6.600;2023-03-31T23:52:31;4.53;;;3.42;;
51985;SDS011;38002;53.296;6.600;2023-03-31T23:57:34;5.00;;;4.15;;
